sensor_id;sensor_type;location;lat;lon;timestamp;pressure;altitude;pressure_sealevel;temperature;humidity
68988;BME280;56038;46.080;11.116;2023-03-22T00:03:51;99286.13;;;12.76;55.58
68988;BME280;56038;46.080;11.116;2023-03-22T00:08:53;99286.28;;;12.73;55.83
68988;BME280;56038;46.080;11.116;2023-03-22T00:13:56;99281.50;;;12.64;56.03
68988;BME280;56038;46.080;11.116;2023-03-22T00:18:58;99280.66;;;12.64;55.86
68988;BME280;56038;46.080;11.116;2023-03-22T00:24:00;99279.66;;;12.66;55.86
68988;BME280;56038;46.080;11.116;2023-03-22T00:29:04;99283.34;;;12.62;55.97
68988;BME280;56038;46.080;11.116;2023-03-22T00:34:05;99280.56;;;12.48;56.67
68988;BME280;56038;46.080;11.116;2023-03-22T00:39:07;99273.09;;;12.40;56.84
68988;BME280;56038;46.080;11.116;2023-03-22T00:44:10;99261.84;;;12.38;57.04
68988;BME280;56038;46.080;11.116;2023-03-22T00:49:12;99272.31;;;12.38;56.81
68988;BME280;56038;46.080;11.116;2023-03-22T00:54:14;99264.88;;;12.29;57.51
68988;BME280;56038;46.080;11.116;2023-03-22T00:59:18;99265.81;;;12.28;57.25
68988;BME280;56038;46.080;11.116;2023-03-22T01:04:19;99256.50;;;12.22;57.53
68988;BME280;56038;46.080;11.116;2023-03-22T01:09:25;99255.72;;;12.20;57.45
68988;BME280;56038;46.080;11.116;2023-03-22T01:14:31;99239.44;;;12.14;57.96
68988;BME280;56038;46.080;11.116;2023-03-22T01:19:33;99238.25;;;12.21;57.50
68988;BME280;56038;46.080;11.116;2023-03-22T01:24:35;99236.31;;;12.24;57.56
68988;BME280;56038;46.080;11.116;2023-03-22T01:29:38;99238.09;;;12.24;57.63
68988;BME280;56038;46.080;11.116;2023-03-22T01:34:40;99235.63;;;12.21;57.38
68988;BME280;56038;46.080;11.116;2023-03-22T01:39:41;99233.78;;;12.23;57.39
68988;BME280;56038;46.080;11.116;2023-03-22T01:45:16;99233.94;;;12.20;58.83
68988;BME280;56038;46.080;11.116;2023-03-22T01:50:29;99247.19;;;12.17;57.44
68988;BME280;56038;46.080;11.116;2023-03-22T01:55:32;99238.06;;;12.07;57.99
68988;BME280;56038;46.080;11.116;2023-03-22T02:00:35;99245.16;;;12.05;58.33
68988;BME280;56038;46.080;11.116;2023-03-22T02:05:37;99246.59;;;12.10;58.25
68988;BME280;56038;46.080;11.116;2023-03-22T02:10:40;99244.00;;;12.10;57.91
68988;BME280;56038;46.080;11.116;2023-03-22T02:15:48;99247.75;;;12.05;58.13
68988;BME280;56038;46.080;11.116;2023-03-22T02:21:05;99249.47;;;12.06;58.63
68988;BME280;56038;46.080;11.116;2023-03-22T02:26:52;99251.47;;;12.01;60.03
68988;BME280;56038;46.080;11.116;2023-03-22T02:32:33;99257.13;;;11.91;60.49
68988;BME280;56038;46.080;11.116;2023-03-22T02:43:13;99268.16;;;11.79;59.88
68988;BME280;56038;46.080;11.116;2023-03-22T02:48:16;99270.13;;;11.74;59.53
68988;BME280;56038;46.080;11.116;2023-03-22T02:53:26;99275.66;;;11.68;59.88
68988;BME280;56038;46.080;11.116;2023-03-22T02:58:35;99281.91;;;11.64;60.30
68988;BME280;56038;46.080;11.116;2023-03-22T03:03:38;99286.31;;;11.63;59.82
68988;BME280;56038;46.080;11.116;2023-03-22T03:08:41;99290.84;;;11.60;60.03
68988;BME280;56038;46.080;11.116;2023-03-22T03:13:46;99278.66;;;11.59;59.93
68988;BME280;56038;46.080;11.116;2023-03-22T03:18:50;99282.59;;;11.49;62.64
68988;BME280;56038;46.080;11.116;2023-03-22T03:24:04;99281.50;;;11.54;60.94
68988;BME280;56038;46.080;11.116;2023-03-22T03:29:14;99279.00;;;11.51;60.63
68988;BME280;56038;46.080;11.116;2023-03-22T03:34:21;99292.09;;;11.51;60.00
68988;BME280;56038;46.080;11.116;2023-03-22T03:39:27;99295.50;;;11.53;60.32
68988;BME280;56038;46.080;11.116;2023-03-22T03:44:33;99287.59;;;11.55;60.04
68988;BME280;56038;46.080;11.116;2023-03-22T03:49:36;99282.59;;;11.49;63.24
68988;BME280;56038;46.080;11.116;2023-03-22T03:54:38;99292.44;;;11.44;60.96
68988;BME280;56038;46.080;11.116;2023-03-22T03:59:41;99291.13;;;11.33;61.31
68988;BME280;56038;46.080;11.116;2023-03-22T04:04:43;99288.81;;;11.27;60.94
68988;BME280;56038;46.080;11.116;2023-03-22T04:09:45;99288.28;;;11.19;61.69
68988;BME280;56038;46.080;11.116;2023-03-22T04:14:48;99296.03;;;11.22;61.08
68988;BME280;56038;46.080;11.116;2023-03-22T04:19:50;99288.44;;;11.16;61.32
68988;BME280;56038;46.080;11.116;2023-03-22T04:24:52;99293.00;;;11.11;61.44
68988;BME280;56038;46.080;11.116;2023-03-22T04:29:56;99291.63;;;11.02;61.64
68988;BME280;56038;46.080;11.116;2023-03-22T04:35:00;99288.59;;;10.93;62.03
68988;BME280;56038;46.080;11.116;2023-03-22T04:40:02;99288.06;;;10.85;62.12
68988;BME280;56038;46.080;11.116;2023-03-22T04:45:09;99298.69;;;10.80;63.07
68988;BME280;56038;46.080;11.116;2023-03-22T04:50:11;99300.53;;;10.78;62.77
68988;BME280;56038;46.080;11.116;2023-03-22T04:55:12;99286.63;;;10.77;62.84
68988;BME280;56038;46.080;11.116;2023-03-22T05:00:17;99292.94;;;10.72;62.57
68988;BME280;56038;46.080;11.116;2023-03-22T05:05:18;99295.94;;;10.63;62.87
68988;BME280;56038;46.080;11.116;2023-03-22T05:10:20;99293.72;;;10.54;63.33
68988;BME280;56038;46.080;11.116;2023-03-22T05:15:23;99286.97;;;10.48;63.65
68988;BME280;56038;46.080;11.116;2023-03-22T05:20:25;99287.19;;;10.43;63.74
68988;BME280;56038;46.080;11.116;2023-03-22T05:25:27;99285.41;;;10.44;63.91
68988;BME280;56038;46.080;11.116;2023-03-22T05:30:31;99294.88;;;10.46;63.37
68988;BME280;56038;46.080;11.116;2023-03-22T05:35:34;99305.63;;;10.39;63.81
68988;BME280;56038;46.080;11.116;2023-03-22T05:40:37;99297.91;;;10.36;63.74
68988;BME280;56038;46.080;11.116;2023-03-22T05:45:40;99308.22;;;10.39;63.44
68988;BME280;56038;46.080;11.116;2023-03-22T05:50:42;99308.31;;;10.37;63.67
68988;BME280;56038;46.080;11.116;2023-03-22T05:55:43;99315.97;;;10.42;63.13
68988;BME280;56038;46.080;11.116;2023-03-22T06:00:47;99323.66;;;10.45;63.55
68988;BME280;56038;46.080;11.116;2023-03-22T06:05:50;99328.63;;;10.51;63.13
68988;BME280;56038;46.080;11.116;2023-03-22T06:10:54;99330.13;;;10.57;63.56
68988;BME280;56038;46.080;11.116;2023-03-22T06:15:59;99330.63;;;10.66;63.12
68988;BME280;56038;46.080;11.116;2023-03-22T06:21:01;99338.19;;;10.72;62.98
68988;BME280;56038;46.080;11.116;2023-03-22T06:26:03;99338.59;;;10.84;62.72
68988;BME280;56038;46.080;11.116;2023-03-22T06:31:07;99345.22;;;10.92;62.16
68988;BME280;56038;46.080;11.116;2023-03-22T06:36:09;99350.53;;;11.11;61.96
68988;BME280;56038;46.080;11.116;2023-03-22T06:41:11;99353.53;;;11.22;61.39
68988;BME280;56038;46.080;11.116;2023-03-22T06:46:14;99357.28;;;11.35;61.15
68988;BME280;56038;46.080;11.116;2023-03-22T06:51:16;99355.78;;;11.50;61.03
68988;BME280;56038;46.080;11.116;2023-03-22T06:56:18;99358.22;;;11.55;60.71
68988;BME280;56038;46.080;11.116;2023-03-22T07:01:21;99361.09;;;11.67;60.70
68988;BME280;56038;46.080;11.116;2023-03-22T07:06:24;99370.81;;;11.86;60.08
68988;BME280;56038;46.080;11.116;2023-03-22T07:11:25;99353.84;;;12.49;62.74
68988;BME280;56038;46.080;11.116;2023-03-22T07:16:29;99362.38;;;13.06;59.43
68988;BME280;56038;46.080;11.116;2023-03-22T07:21:30;99351.72;;;12.92;58.91
68988;BME280;56038;46.080;11.116;2023-03-22T07:26:32;99352.91;;;12.86;59.13
68988;BME280;56038;46.080;11.116;2023-03-22T07:31:36;99358.13;;;13.04;58.68
68988;BME280;56038;46.080;11.116;2023-03-22T07:36:38;99355.75;;;13.16;58.45
68988;BME280;56038;46.080;11.116;2023-03-22T07:41:40;99356.31;;;13.23;57.87
68988;BME280;56038;46.080;11.116;2023-03-22T07:46:43;99357.53;;;13.16;57.31
68988;BME280;56038;46.080;11.116;2023-03-22T07:51:45;99354.84;;;13.35;57.16
68988;BME280;56038;46.080;11.116;2023-03-22T07:56:47;99357.50;;;13.51;56.47
68988;BME280;56038;46.080;11.116;2023-03-22T08:01:50;99352.19;;;13.52;56.07
68988;BME280;56038;46.080;11.116;2023-03-22T08:06:52;99357.25;;;13.55;55.82
68988;BME280;56038;46.080;11.116;2023-03-22T08:11:57;99355.69;;;13.68;55.79
68988;BME280;56038;46.080;11.116;2023-03-22T08:17:01;99353.19;;;13.83;55.14
68988;BME280;56038;46.080;11.116;2023-03-22T08:22:02;99345.75;;;14.06;54.94
68988;BME280;56038;46.080;11.116;2023-03-22T08:27:06;99350.84;;;14.25;54.33
68988;BME280;56038;46.080;11.116;2023-03-22T08:32:09;99346.94;;;14.32;54.06
68988;BME280;56038;46.080;11.116;2023-03-22T08:37:12;99332.72;;;14.82;54.38
68988;BME280;56038;46.080;11.116;2023-03-22T08:42:14;99338.34;;;15.06;52.54
68988;BME280;56038;46.080;11.116;2023-03-22T08:47:17;99328.66;;;15.07;52.57
68988;BME280;56038;46.080;11.116;2023-03-22T08:52:19;99336.03;;;15.30;51.83
68988;BME280;56038;46.080;11.116;2023-03-22T08:57:21;99336.44;;;15.38;51.46
68988;BME280;56038;46.080;11.116;2023-03-22T09:02:25;99320.88;;;15.64;50.52
68988;BME280;56038;46.080;11.116;2023-03-22T09:07:26;99325.34;;;15.90;49.86
68988;BME280;56038;46.080;11.116;2023-03-22T09:12:28;99320.25;;;16.01;49.16
68988;BME280;56038;46.080;11.116;2023-03-22T09:17:31;99307.00;;;16.30;48.13
68988;BME280;56038;46.080;11.116;2023-03-22T09:22:33;99302.72;;;16.68;47.72
68988;BME280;56038;46.080;11.116;2023-03-22T09:27:35;99308.72;;;17.10;46.85
68988;BME280;56038;46.080;11.116;2023-03-22T09:32:38;99302.81;;;17.57;45.70
68988;BME280;56038;46.080;11.116;2023-03-22T09:37:40;99289.63;;;18.07;45.14
68988;BME280;56038;46.080;11.116;2023-03-22T09:42:45;99283.13;;;18.23;43.46
68988;BME280;56038;46.080;11.116;2023-03-22T09:47:53;99270.47;;;18.40;42.88
68988;BME280;56038;46.080;11.116;2023-03-22T09:52:56;99270.81;;;18.94;42.96
68988;BME280;56038;46.080;11.116;2023-03-22T09:58:04;99261.94;;;19.18;40.66
68988;BME280;56038;46.080;11.116;2023-03-22T10:03:16;99257.53;;;19.63;39.19
68988;BME280;56038;46.080;11.116;2023-03-22T10:08:27;99249.59;;;20.17;39.43
68988;BME280;56038;46.080;11.116;2023-03-22T10:13:34;99239.38;;;20.56;39.29
68988;BME280;56038;46.080;11.116;2023-03-22T10:18:44;99232.28;;;20.34;38.83
68988;BME280;56038;46.080;11.116;2023-03-22T10:23:49;99231.38;;;20.98;38.09
68988;BME280;56038;46.080;11.116;2023-03-22T10:28:53;99223.47;;;21.28;34.55
68988;BME280;56038;46.080;11.116;2023-03-22T10:34:01;99214.53;;;21.29;34.36
68988;BME280;56038;46.080;11.116;2023-03-22T10:39:11;99207.41;;;21.70;34.45
68988;BME280;56038;46.080;11.116;2023-03-22T10:44:18;99203.50;;;21.03;36.62
68988;BME280;56038;46.080;11.116;2023-03-22T10:49:26;99202.19;;;21.59;35.35
68988;BME280;56038;46.080;11.116;2023-03-22T10:54:31;99187.72;;;22.79;35.18
68988;BME280;56038;46.080;11.116;2023-03-22T10:59:47;99184.13;;;22.60;32.98
68988;BME280;56038;46.080;11.116;2023-03-22T11:04:54;99172.34;;;22.73;33.45
68988;BME280;56038;46.080;11.116;2023-03-22T11:15:22;99162.22;;;22.76;32.72
68988;BME280;56038;46.080;11.116;2023-03-22T11:20:25;99150.28;;;22.80;32.62
68988;BME280;56038;46.080;11.116;2023-03-22T11:25:29;99144.59;;;22.56;33.30
68988;BME280;56038;46.080;11.116;2023-03-22T11:30:32;99134.31;;;23.54;32.68
68988;BME280;56038;46.080;11.116;2023-03-22T11:35:37;99130.94;;;24.33;31.97
68988;BME280;56038;46.080;11.116;2023-03-22T11:40:48;99127.19;;;24.96;30.21
68988;BME280;56038;46.080;11.116;2023-03-22T11:45:55;99113.66;;;25.31;30.11
68988;BME280;56038;46.080;11.116;2023-03-22T11:51:05;99108.38;;;25.05;28.53
68988;BME280;56038;46.080;11.116;2023-03-22T11:56:10;99100.78;;;24.23;30.42
68988;BME280;56038;46.080;11.116;2023-03-22T12:01:18;99087.41;;;25.85;29.75
68988;BME280;56038;46.080;11.116;2023-03-22T12:06:25;99086.56;;;26.25;28.86
68988;BME280;56038;46.080;11.116;2023-03-22T12:11:32;99074.19;;;27.12;27.91
68988;BME280;56038;46.080;11.116;2023-03-22T12:16:39;99072.38;;;26.09;27.97
68988;BME280;56038;46.080;11.116;2023-03-22T12:21:48;99060.28;;;27.09;27.92
68988;BME280;56038;46.080;11.116;2023-03-22T12:26:51;99052.53;;;27.99;27.47
68988;BME280;56038;46.080;11.116;2023-03-22T12:31:58;99035.38;;;27.85;25.87
68988;BME280;56038;46.080;11.116;2023-03-22T12:37:05;99030.13;;;28.29;25.71
68988;BME280;56038;46.080;11.116;2023-03-22T12:42:14;99025.50;;;28.53;24.82
68988;BME280;56038;46.080;11.116;2023-03-22T12:47:22;99018.84;;;28.63;25.62
68988;BME280;56038;46.080;11.116;2023-03-22T12:52:31;99013.09;;;28.37;23.86
68988;BME280;56038;46.080;11.116;2023-03-22T12:57:35;99007.06;;;27.97;25.51
68988;BME280;56038;46.080;11.116;2023-03-22T13:02:39;99004.13;;;27.69;25.77
68988;BME280;56038;46.080;11.116;2023-03-22T13:07:54;98994.16;;;27.78;24.79
68988;BME280;56038;46.080;11.116;2023-03-22T13:13:09;98979.34;;;27.59;24.49
68988;BME280;56038;46.080;11.116;2023-03-22T13:18:36;98976.44;;;27.69;24.64
68988;BME280;56038;46.080;11.116;2023-03-22T13:23:54;98961.81;;;27.94;23.97
68988;BME280;56038;46.080;11.116;2023-03-22T13:28:58;98950.91;;;28.11;25.68
68988;BME280;56038;46.080;11.116;2023-03-22T13:34:00;98943.19;;;28.08;25.84
68988;BME280;56038;46.080;11.116;2023-03-22T13:39:09;98946.56;;;27.72;24.81
68988;BME280;56038;46.080;11.116;2023-03-22T13:44:20;98935.25;;;26.85;26.07
68988;BME280;56038;46.080;11.116;2023-03-22T13:49:47;98922.19;;;26.43;25.71
68988;BME280;56038;46.080;11.116;2023-03-22T13:54:52;98920.16;;;26.53;27.06
68988;BME280;56038;46.080;11.116;2023-03-22T13:59:58;98914.97;;;25.72;27.75
68988;BME280;56038;46.080;11.116;2023-03-22T14:05:07;98903.78;;;25.27;28.13
68988;BME280;56038;46.080;11.116;2023-03-22T14:10:15;98906.75;;;25.24;28.54
68988;BME280;56038;46.080;11.116;2023-03-22T14:15:20;98889.03;;;24.40;29.58
68988;BME280;56038;46.080;11.116;2023-03-22T14:20:24;98887.66;;;24.02;30.22
68988;BME280;56038;46.080;11.116;2023-03-22T14:25:30;98882.50;;;23.75;30.86
68988;BME280;56038;46.080;11.116;2023-03-22T14:30:35;98883.09;;;23.25;31.60
68988;BME280;56038;46.080;11.116;2023-03-22T14:35:41;98869.94;;;22.88;32.42
68988;BME280;56038;46.080;11.116;2023-03-22T14:40:45;98870.16;;;22.49;33.14
68988;BME280;56038;46.080;11.116;2023-03-22T14:45:47;98866.66;;;22.21;33.67
68988;BME280;56038;46.080;11.116;2023-03-22T14:50:51;98878.22;;;22.02;34.20
68988;BME280;56038;46.080;11.116;2023-03-22T14:55:55;98861.94;;;21.78;34.50
68988;BME280;56038;46.080;11.116;2023-03-22T15:00:59;98880.03;;;21.45;35.05
68988;BME280;56038;46.080;11.116;2023-03-22T15:06:01;98872.63;;;21.20;35.51
68988;BME280;56038;46.080;11.116;2023-03-22T15:11:11;98879.22;;;21.06;35.79
68988;BME280;56038;46.080;11.116;2023-03-22T15:16:16;98872.50;;;20.92;35.73
68988;BME280;56038;46.080;11.116;2023-03-22T15:21:22;98872.09;;;20.87;35.96
68988;BME280;56038;46.080;11.116;2023-03-22T15:26:27;98867.19;;;20.73;36.56
68988;BME280;56038;46.080;11.116;2023-03-22T15:31:31;98872.84;;;20.49;36.92
68988;BME280;56038;46.080;11.116;2023-03-22T15:36:34;98867.88;;;20.35;36.99
68988;BME280;56038;46.080;11.116;2023-03-22T15:41:39;98871.94;;;20.29;37.02
68988;BME280;56038;46.080;11.116;2023-03-22T15:46:52;98868.94;;;20.13;37.53
68988;BME280;56038;46.080;11.116;2023-03-22T15:51:54;98866.16;;;20.05;37.67
68988;BME280;56038;46.080;11.116;2023-03-22T15:57:07;98863.56;;;19.94;38.15
68988;BME280;56038;46.080;11.116;2023-03-22T16:02:21;98883.38;;;19.90;38.22
68988;BME280;56038;46.080;11.116;2023-03-22T16:07:26;98873.56;;;19.81;38.38
68988;BME280;56038;46.080;11.116;2023-03-22T16:12:30;98894.25;;;19.66;38.39
68988;BME280;56038;46.080;11.116;2023-03-22T16:17:32;98876.13;;;19.50;38.41
68988;BME280;56038;46.080;11.116;2023-03-22T16:22:34;98891.38;;;19.37;38.46
68988;BME280;56038;46.080;11.116;2023-03-22T16:27:37;98896.16;;;19.22;38.68
68988;BME280;56038;46.080;11.116;2023-03-22T16:32:39;98901.88;;;19.06;39.08
68988;BME280;56038;46.080;11.116;2023-03-22T16:37:42;98909.75;;;18.97;39.15
68988;BME280;56038;46.080;11.116;2023-03-22T16:42:45;98909.53;;;18.89;39.32
68988;BME280;56038;46.080;11.116;2023-03-22T16:47:48;98918.81;;;18.83;39.72
68988;BME280;56038;46.080;11.116;2023-03-22T16:52:50;98931.59;;;18.78;39.57
68988;BME280;56038;46.080;11.116;2023-03-22T16:57:54;98941.81;;;18.71;39.44
68988;BME280;56038;46.080;11.116;2023-03-22T17:02:57;98943.47;;;18.61;39.53
68988;BME280;56038;46.080;11.116;2023-03-22T17:08:00;98955.25;;;18.46;39.93
68988;BME280;56038;46.080;11.116;2023-03-22T17:13:05;98958.06;;;18.33;40.19
68988;BME280;56038;46.080;11.116;2023-03-22T17:18:08;98954.44;;;18.23;40.31
68988;BME280;56038;46.080;11.116;2023-03-22T17:23:12;98983.50;;;18.12;40.46
68988;BME280;56038;46.080;11.116;2023-03-22T17:28:15;98980.88;;;18.01;40.70
68988;BME280;56038;46.080;11.116;2023-03-22T17:33:18;98978.06;;;17.91;40.79
68988;BME280;56038;46.080;11.116;2023-03-22T17:38:20;98984.03;;;17.82;41.02
68988;BME280;56038;46.080;11.116;2023-03-22T17:43:23;98993.03;;;17.68;41.31
68988;BME280;56038;46.080;11.116;2023-03-22T17:48:26;98997.78;;;17.63;41.48
68988;BME280;56038;46.080;11.116;2023-03-22T17:53:28;98999.19;;;17.56;41.50
68988;BME280;56038;46.080;11.116;2023-03-22T17:58:31;99004.06;;;17.49;41.75
68988;BME280;56038;46.080;11.116;2023-03-22T18:03:33;99022.41;;;17.40;41.87
68988;BME280;56038;46.080;11.116;2023-03-22T18:08:34;99021.16;;;17.32;41.99
68988;BME280;56038;46.080;11.116;2023-03-22T18:13:38;99025.72;;;17.30;42.11
68988;BME280;56038;46.080;11.116;2023-03-22T18:18:40;99042.03;;;17.24;42.20
68988;BME280;56038;46.080;11.116;2023-03-22T18:23:42;99046.03;;;17.17;42.18
68988;BME280;56038;46.080;11.116;2023-03-22T18:28:45;99047.22;;;17.13;42.26
68988;BME280;56038;46.080;11.116;2023-03-22T18:33:47;99051.88;;;17.10;42.27
68988;BME280;56038;46.080;11.116;2023-03-22T18:38:49;99057.59;;;17.03;42.66
68988;BME280;56038;46.080;11.116;2023-03-22T18:43:52;99069.78;;;16.93;42.97
68988;BME280;56038;46.080;11.116;2023-03-22T18:48:53;99081.81;;;16.85;43.14
68988;BME280;56038;46.080;11.116;2023-03-22T18:53:55;99085.94;;;16.76;43.57
68988;BME280;56038;46.080;11.116;2023-03-22T18:58:58;99092.28;;;16.73;43.78
68988;BME280;56038;46.080;11.116;2023-03-22T19:04:00;99092.34;;;16.72;43.46
68988;BME280;56038;46.080;11.116;2023-03-22T19:09:02;99089.22;;;16.67;43.69
68988;BME280;56038;46.080;11.116;2023-03-22T19:14:05;99101.00;;;16.61;44.00
68988;BME280;56038;46.080;11.116;2023-03-22T19:19:09;99099.94;;;16.64;44.31
68988;BME280;56038;46.080;11.116;2023-03-22T19:24:10;99103.66;;;16.61;44.33
68988;BME280;56038;46.080;11.116;2023-03-22T19:29:13;99105.09;;;16.53;44.54
68988;BME280;56038;46.080;11.116;2023-03-22T19:34:15;99114.50;;;16.44;44.37
68988;BME280;56038;46.080;11.116;2023-03-22T19:39:17;99115.97;;;16.35;44.62
68988;BME280;56038;46.080;11.116;2023-03-22T19:44:23;99124.78;;;16.22;45.07
68988;BME280;56038;46.080;11.116;2023-03-22T19:49:25;99129.00;;;16.11;46.08
68988;BME280;56038;46.080;11.116;2023-03-22T19:54:27;99121.09;;;16.11;45.35
68988;BME280;56038;46.080;11.116;2023-03-22T19:59:30;99127.34;;;16.10;45.53
68988;BME280;56038;46.080;11.116;2023-03-22T20:04:32;99130.88;;;15.97;46.56
68988;BME280;56038;46.080;11.116;2023-03-22T20:09:36;99131.72;;;15.97;45.67
68988;BME280;56038;46.080;11.116;2023-03-22T20:14:43;99137.19;;;15.94;45.67
68988;BME280;56038;46.080;11.116;2023-03-22T20:19:45;99143.16;;;15.83;46.34
68988;BME280;56038;46.080;11.116;2023-03-22T20:24:46;99139.88;;;15.80;46.06
68988;BME280;56038;46.080;11.116;2023-03-22T20:29:49;99143.00;;;15.72;46.69
68988;BME280;56038;46.080;11.116;2023-03-22T20:34:51;99144.25;;;15.67;46.62
68988;BME280;56038;46.080;11.116;2023-03-22T20:39:53;99155.31;;;15.57;47.19
68988;BME280;56038;46.080;11.116;2023-03-22T20:44:57;99155.44;;;15.56;47.05
68988;BME280;56038;46.080;11.116;2023-03-22T20:49:58;99160.28;;;15.35;48.14
68988;BME280;56038;46.080;11.116;2023-03-22T20:55:00;99173.34;;;15.22;48.39
68988;BME280;56038;46.080;11.116;2023-03-22T21:00:05;99184.16;;;15.18;48.29
68988;BME280;56038;46.080;11.116;2023-03-22T21:05:11;99182.69;;;15.00;48.88
68988;BME280;56038;46.080;11.116;2023-03-22T21:10:15;99188.09;;;14.96;49.14
68988;BME280;56038;46.080;11.116;2023-03-22T21:15:19;99188.47;;;14.90;49.51
68988;BME280;56038;46.080;11.116;2023-03-22T21:20:22;99191.94;;;14.77;49.71
68988;BME280;56038;46.080;11.116;2023-03-22T21:25:24;99190.13;;;14.63;49.83
68988;BME280;56038;46.080;11.116;2023-03-22T21:30:27;99200.09;;;14.58;50.74
68988;BME280;56038;46.080;11.116;2023-03-22T21:35:31;99206.66;;;14.35;52.14
68988;BME280;56038;46.080;11.116;2023-03-22T21:40:35;99196.25;;;14.18;52.80
68988;BME280;56038;46.080;11.116;2023-03-22T21:45:38;99204.00;;;14.21;52.04
68988;BME280;56038;46.080;11.116;2023-03-22T21:50:41;99195.94;;;14.24;51.84
68988;BME280;56038;46.080;11.116;2023-03-22T21:55:47;99199.53;;;14.07;52.77
68988;BME280;56038;46.080;11.116;2023-03-22T22:00:51;99199.63;;;14.05;52.74
68988;BME280;56038;46.080;11.116;2023-03-22T22:05:54;99198.78;;;14.05;52.66
68988;BME280;56038;46.080;11.116;2023-03-22T22:10:59;99203.59;;;13.97;52.79
68988;BME280;56038;46.080;11.116;2023-03-22T22:16:04;99203.88;;;13.92;53.02
68988;BME280;56038;46.080;11.116;2023-03-22T22:21:09;99209.22;;;13.91;52.98
68988;BME280;56038;46.080;11.116;2023-03-22T22:26:12;99213.75;;;13.87;52.91
68988;BME280;56038;46.080;11.116;2023-03-22T22:31:17;99214.03;;;13.83;52.85
68988;BME280;56038;46.080;11.116;2023-03-22T22:36:24;99219.53;;;13.78;52.68
68988;BME280;56038;46.080;11.116;2023-03-22T22:41:29;99222.25;;;13.76;52.64
68988;BME280;56038;46.080;11.116;2023-03-22T22:46:32;99220.88;;;13.69;53.01
68988;BME280;56038;46.080;11.116;2023-03-22T22:51:34;99218.63;;;13.63;53.39
68988;BME280;56038;46.080;11.116;2023-03-22T22:56:39;99227.59;;;13.59;53.43
68988;BME280;56038;46.080;11.116;2023-03-22T23:01:43;99228.25;;;13.47;54.00
68988;BME280;56038;46.080;11.116;2023-03-22T23:06:44;99221.63;;;13.40;53.98
68988;BME280;56038;46.080;11.116;2023-03-22T23:11:51;99213.16;;;13.35;54.44
68988;BME280;56038;46.080;11.116;2023-03-22T23:16:54;99227.56;;;13.28;54.48
68988;BME280;56038;46.080;11.116;2023-03-22T23:21:56;99229.56;;;13.23;54.80
68988;BME280;56038;46.080;11.116;2023-03-22T23:27:02;99224.16;;;13.08;54.86
68988;BME280;56038;46.080;11.116;2023-03-22T23:32:06;99217.31;;;13.06;55.08
68988;BME280;56038;46.080;11.116;2023-03-22T23:37:07;99216.72;;;13.01;55.17
68988;BME280;56038;46.080;11.116;2023-03-22T23:42:10;99214.25;;;12.98;55.28
68988;BME280;56038;46.080;11.116;2023-03-22T23:47:14;99220.22;;;12.84;55.74
68988;BME280;56038;46.080;11.116;2023-03-22T23:52:16;99214.28;;;12.80;55.83
68988;BME280;56038;46.080;11.116;2023-03-22T23:57:17;99205.78;;;12.75;55.92
